sensor_id;sensor_type;location;lat;lon;timestamp;P1;durP1;ratioP1;P2;durP2;ratioP2
80961;SDS011;70424;55.154;14.722;2023-11-22T00:01:51;15.48;;;7.50;;
80961;SDS011;70424;55.154;14.722;2023-11-22T00:04:17;15.73;;;8.35;;
80961;SDS011;70424;55.154;14.722;2023-11-22T00:06:45;14.85;;;8.65;;
80961;SDS011;70424;55.154;14.722;2023-11-22T00:09:10;16.52;;;8.65;;
80961;SDS011;70424;55.154;14.722;2023-11-22T00:11:36;15.50;;;8.18;;
80961;SDS011;70424;55.154;14.722;2023-11-22T00:14:02;16.35;;;8.35;;
80961;SDS011;70424;55.154;14.722;2023-11-22T00:16:27;11.07;;;5.65;;
80961;SDS011;70424;55.154;14.722;2023-11-22T00:18:53;11.70;;;6.05;;
80961;SDS011;70424;55.154;14.722;2023-11-22T00:21:18;11.75;;;5.38;;
80961;SDS011;70424;55.154;14.722;2023-11-22T00:23:45;9.93;;;5.70;;
80961;SDS011;70424;55.154;14.722;2023-11-22T00:26:11;9.77;;;5.43;;
80961;SDS011;70424;55.154;14.722;2023-11-22T00:28:37;11.40;;;5.45;;
80961;SDS011;70424;55.154;14.722;2023-11-22T00:31:02;10.77;;;5.60;;
80961;SDS011;70424;55.154;14.722;2023-11-22T00:33:27;9.45;;;4.80;;
80961;SDS011;70424;55.154;14.722;2023-11-22T00:35:53;6.10;;;3.60;;
80961;SDS011;70424;55.154;14.722;2023-11-22T00:38:21;7.45;;;3.47;;
80961;SDS011;70424;55.154;14.722;2023-11-22T00:40:47;5.35;;;2.92;;
80961;SDS011;70424;55.154;14.722;2023-11-22T00:43:12;4.35;;;2.85;;
80961;SDS011;70424;55.154;14.722;2023-11-22T00:45:37;4.32;;;2.38;;
80961;SDS011;70424;55.154;14.722;2023-11-22T00:48:03;3.83;;;2.20;;
80961;SDS011;70424;55.154;14.722;2023-11-22T00:50:28;3.60;;;2.30;;
80961;SDS011;70424;55.154;14.722;2023-11-22T00:52:53;3.53;;;2.45;;
80961;SDS011;70424;55.154;14.722;2023-11-22T00:55:19;4.18;;;2.40;;
80961;SDS011;70424;55.154;14.722;2023-11-22T00:57:44;4.50;;;2.13;;
80961;SDS011;70424;55.154;14.722;2023-11-22T01:00:10;3.53;;;2.20;;
80961;SDS011;70424;55.154;14.722;2023-11-22T01:02:37;4.07;;;2.30;;
80961;SDS011;70424;55.154;14.722;2023-11-22T01:05:06;3.65;;;2.42;;
80961;SDS011;70424;55.154;14.722;2023-11-22T01:07:40;4.90;;;2.50;;
80961;SDS011;70424;55.154;14.722;2023-11-22T01:10:06;4.28;;;2.40;;
80961;SDS011;70424;55.154;14.722;2023-11-22T01:12:32;4.95;;;2.38;;
80961;SDS011;70424;55.154;14.722;2023-11-22T01:14:57;4.75;;;2.70;;
80961;SDS011;70424;55.154;14.722;2023-11-22T01:17:23;3.17;;;2.05;;
80961;SDS011;70424;55.154;14.722;2023-11-22T01:19:49;3.83;;;1.98;;
80961;SDS011;70424;55.154;14.722;2023-11-22T01:22:15;3.88;;;2.33;;
80961;SDS011;70424;55.154;14.722;2023-11-22T01:24:41;5.07;;;2.28;;
80961;SDS011;70424;55.154;14.722;2023-11-22T01:27:06;4.55;;;2.25;;
80961;SDS011;70424;55.154;14.722;2023-11-22T01:29:31;2.78;;;2.00;;
80961;SDS011;70424;55.154;14.722;2023-11-22T01:31:57;3.08;;;1.92;;
80961;SDS011;70424;55.154;14.722;2023-11-22T01:34:22;3.92;;;2.28;;
80961;SDS011;70424;55.154;14.722;2023-11-22T01:36:49;3.63;;;2.25;;
80961;SDS011;70424;55.154;14.722;2023-11-22T01:39:15;3.92;;;2.25;;
80961;SDS011;70424;55.154;14.722;2023-11-22T01:41:40;3.17;;;2.08;;
80961;SDS011;70424;55.154;14.722;2023-11-22T01:44:07;4.53;;;2.50;;
80961;SDS011;70424;55.154;14.722;2023-11-22T01:46:33;4.20;;;2.20;;
80961;SDS011;70424;55.154;14.722;2023-11-22T01:48:59;3.33;;;2.38;;
80961;SDS011;70424;55.154;14.722;2023-11-22T01:51:25;3.00;;;2.15;;
80961;SDS011;70424;55.154;14.722;2023-11-22T01:53:51;5.28;;;2.50;;
80961;SDS011;70424;55.154;14.722;2023-11-22T01:56:19;5.18;;;1.95;;
80961;SDS011;70424;55.154;14.722;2023-11-22T01:58:45;3.53;;;2.20;;
80961;SDS011;70424;55.154;14.722;2023-11-22T02:01:12;5.68;;;1.90;;
80961;SDS011;70424;55.154;14.722;2023-11-22T02:03:38;4.15;;;2.00;;
80961;SDS011;70424;55.154;14.722;2023-11-22T02:06:04;4.07;;;2.20;;
80961;SDS011;70424;55.154;14.722;2023-11-22T02:08:30;3.65;;;2.08;;
80961;SDS011;70424;55.154;14.722;2023-11-22T02:10:59;4.28;;;2.38;;
80961;SDS011;70424;55.154;14.722;2023-11-22T02:13:28;3.67;;;2.20;;
80961;SDS011;70424;55.154;14.722;2023-11-22T02:15:54;3.85;;;2.33;;
80961;SDS011;70424;55.154;14.722;2023-11-22T02:18:21;3.53;;;2.10;;
80961;SDS011;70424;55.154;14.722;2023-11-22T02:20:48;3.80;;;2.33;;
80961;SDS011;70424;55.154;14.722;2023-11-22T02:23:14;4.10;;;2.17;;
80961;SDS011;70424;55.154;14.722;2023-11-22T02:25:39;5.30;;;2.38;;
80961;SDS011;70424;55.154;14.722;2023-11-22T02:28:05;3.58;;;2.10;;
80961;SDS011;70424;55.154;14.722;2023-11-22T02:30:30;4.32;;;2.28;;
80961;SDS011;70424;55.154;14.722;2023-11-22T02:32:56;3.78;;;1.95;;
80961;SDS011;70424;55.154;14.722;2023-11-22T02:35:21;3.55;;;2.10;;
80961;SDS011;70424;55.154;14.722;2023-11-22T02:37:47;3.25;;;2.20;;
80961;SDS011;70424;55.154;14.722;2023-11-22T02:42:46;4.00;;;2.30;;
80961;SDS011;70424;55.154;14.722;2023-11-22T02:45:15;2.90;;;1.95;;
80961;SDS011;70424;55.154;14.722;2023-11-22T02:47:42;4.90;;;2.10;;
80961;SDS011;70424;55.154;14.722;2023-11-22T02:50:09;3.80;;;2.20;;
80961;SDS011;70424;55.154;14.722;2023-11-22T02:52:34;3.90;;;2.17;;
80961;SDS011;70424;55.154;14.722;2023-11-22T02:55:00;3.05;;;2.10;;
80961;SDS011;70424;55.154;14.722;2023-11-22T02:57:25;3.88;;;2.40;;
80961;SDS011;70424;55.154;14.722;2023-11-22T02:59:51;3.47;;;2.20;;
80961;SDS011;70424;55.154;14.722;2023-11-22T03:02:17;4.07;;;2.38;;
80961;SDS011;70424;55.154;14.722;2023-11-22T03:04:43;3.70;;;2.05;;
80961;SDS011;70424;55.154;14.722;2023-11-22T03:07:08;3.78;;;2.10;;
80961;SDS011;70424;55.154;14.722;2023-11-22T03:09:34;4.32;;;2.10;;
80961;SDS011;70424;55.154;14.722;2023-11-22T03:12:00;4.28;;;2.22;;
80961;SDS011;70424;55.154;14.722;2023-11-22T03:14:27;3.58;;;2.25;;
80961;SDS011;70424;55.154;14.722;2023-11-22T03:16:53;4.78;;;2.47;;
80961;SDS011;70424;55.154;14.722;2023-11-22T03:19:18;5.38;;;2.35;;
80961;SDS011;70424;55.154;14.722;2023-11-22T03:21:44;3.30;;;2.03;;
80961;SDS011;70424;55.154;14.722;2023-11-22T03:24:10;4.25;;;2.30;;
80961;SDS011;70424;55.154;14.722;2023-11-22T03:26:36;5.57;;;2.30;;
80961;SDS011;70424;55.154;14.722;2023-11-22T03:29:01;5.00;;;2.47;;
80961;SDS011;70424;55.154;14.722;2023-11-22T03:31:27;4.18;;;2.40;;
80961;SDS011;70424;55.154;14.722;2023-11-22T03:33:53;3.75;;;2.00;;
80961;SDS011;70424;55.154;14.722;2023-11-22T03:36:20;3.85;;;2.20;;
80961;SDS011;70424;55.154;14.722;2023-11-22T03:38:45;3.50;;;2.17;;
80961;SDS011;70424;55.154;14.722;2023-11-22T03:41:14;4.03;;;2.42;;
80961;SDS011;70424;55.154;14.722;2023-11-22T03:43:39;3.35;;;1.92;;
80961;SDS011;70424;55.154;14.722;2023-11-22T03:46:05;4.45;;;2.15;;
80961;SDS011;70424;55.154;14.722;2023-11-22T03:48:30;3.50;;;2.10;;
80961;SDS011;70424;55.154;14.722;2023-11-22T03:50:55;4.13;;;2.25;;
80961;SDS011;70424;55.154;14.722;2023-11-22T03:53:21;4.55;;;2.55;;
80961;SDS011;70424;55.154;14.722;2023-11-22T03:55:48;4.40;;;2.33;;
80961;SDS011;70424;55.154;14.722;2023-11-22T03:58:15;5.40;;;2.70;;
80961;SDS011;70424;55.154;14.722;2023-11-22T04:00:40;3.97;;;2.47;;
80961;SDS011;70424;55.154;14.722;2023-11-22T04:03:05;5.10;;;2.90;;
80961;SDS011;70424;55.154;14.722;2023-11-22T04:05:31;3.63;;;2.38;;
80961;SDS011;70424;55.154;14.722;2023-11-22T04:07:57;3.58;;;2.30;;
80961;SDS011;70424;55.154;14.722;2023-11-22T04:10:22;4.05;;;2.40;;
80961;SDS011;70424;55.154;14.722;2023-11-22T04:12:48;6.05;;;2.80;;
80961;SDS011;70424;55.154;14.722;2023-11-22T04:15:14;3.67;;;2.13;;
80961;SDS011;70424;55.154;14.722;2023-11-22T04:17:40;5.38;;;2.53;;
80961;SDS011;70424;55.154;14.722;2023-11-22T04:20:09;4.85;;;2.60;;
80961;SDS011;70424;55.154;14.722;2023-11-22T04:22:39;4.00;;;2.40;;
80961;SDS011;70424;55.154;14.722;2023-11-22T04:25:06;3.15;;;2.17;;
80961;SDS011;70424;55.154;14.722;2023-11-22T04:27:32;4.35;;;2.38;;
80961;SDS011;70424;55.154;14.722;2023-11-22T04:29:58;4.25;;;2.30;;
80961;SDS011;70424;55.154;14.722;2023-11-22T04:32:23;4.28;;;2.45;;
80961;SDS011;70424;55.154;14.722;2023-11-22T04:34:48;5.00;;;2.55;;
80961;SDS011;70424;55.154;14.722;2023-11-22T04:37:14;4.00;;;2.40;;
80961;SDS011;70424;55.154;14.722;2023-11-22T04:39:39;5.32;;;2.80;;
80961;SDS011;70424;55.154;14.722;2023-11-22T04:42:05;5.20;;;2.53;;
80961;SDS011;70424;55.154;14.722;2023-11-22T04:44:30;5.45;;;2.92;;
80961;SDS011;70424;55.154;14.722;2023-11-22T04:46:57;4.90;;;2.85;;
80961;SDS011;70424;55.154;14.722;2023-11-22T04:49:24;5.57;;;2.65;;
80961;SDS011;70424;55.154;14.722;2023-11-22T04:51:49;6.05;;;2.88;;
80961;SDS011;70424;55.154;14.722;2023-11-22T04:54:15;5.55;;;2.75;;
80961;SDS011;70424;55.154;14.722;2023-11-22T04:56:40;6.80;;;2.97;;
80961;SDS011;70424;55.154;14.722;2023-11-22T04:59:06;4.28;;;2.30;;
80961;SDS011;70424;55.154;14.722;2023-11-22T05:01:34;5.78;;;2.67;;
80961;SDS011;70424;55.154;14.722;2023-11-22T05:03:59;4.53;;;2.60;;
80961;SDS011;70424;55.154;14.722;2023-11-22T05:06:25;5.40;;;3.10;;
80961;SDS011;70424;55.154;14.722;2023-11-22T05:08:52;5.97;;;2.90;;
80961;SDS011;70424;55.154;14.722;2023-11-22T05:11:17;5.32;;;2.88;;
80961;SDS011;70424;55.154;14.722;2023-11-22T05:13:42;4.05;;;2.45;;
80961;SDS011;70424;55.154;14.722;2023-11-22T05:16:08;5.72;;;2.67;;
80961;SDS011;70424;55.154;14.722;2023-11-22T05:18:34;3.72;;;1.98;;
80961;SDS011;70424;55.154;14.722;2023-11-22T05:21:00;3.35;;;1.90;;
80961;SDS011;70424;55.154;14.722;2023-11-22T05:23:28;5.53;;;2.60;;
80961;SDS011;70424;55.154;14.722;2023-11-22T05:25:53;5.13;;;2.65;;
80961;SDS011;70424;55.154;14.722;2023-11-22T05:28:18;4.43;;;2.45;;
80961;SDS011;70424;55.154;14.722;2023-11-22T05:30:44;3.95;;;2.30;;
80961;SDS011;70424;55.154;14.722;2023-11-22T05:33:10;4.55;;;2.47;;
80961;SDS011;70424;55.154;14.722;2023-11-22T05:35:35;6.78;;;3.00;;
80961;SDS011;70424;55.154;14.722;2023-11-22T05:38:00;6.00;;;3.55;;
80961;SDS011;70424;55.154;14.722;2023-11-22T05:40:27;13.20;;;7.65;;
80961;SDS011;70424;55.154;14.722;2023-11-22T05:42:52;11.07;;;6.47;;
80961;SDS011;70424;55.154;14.722;2023-11-22T05:45:17;6.30;;;3.70;;
80961;SDS011;70424;55.154;14.722;2023-11-22T05:47:43;5.70;;;3.15;;
80961;SDS011;70424;55.154;14.722;2023-11-22T05:50:08;5.38;;;2.90;;
80961;SDS011;70424;55.154;14.722;2023-11-22T05:52:34;5.20;;;2.75;;
80961;SDS011;70424;55.154;14.722;2023-11-22T05:54:59;5.85;;;3.28;;
80961;SDS011;70424;55.154;14.722;2023-11-22T05:57:28;7.78;;;3.42;;
80961;SDS011;70424;55.154;14.722;2023-11-22T05:59:54;6.60;;;3.65;;
80961;SDS011;70424;55.154;14.722;2023-11-22T06:02:20;5.05;;;3.03;;
80961;SDS011;70424;55.154;14.722;2023-11-22T06:04:45;6.45;;;3.42;;
80961;SDS011;70424;55.154;14.722;2023-11-22T06:07:10;6.03;;;3.10;;
80961;SDS011;70424;55.154;14.722;2023-11-22T06:09:36;6.07;;;3.10;;
80961;SDS011;70424;55.154;14.722;2023-11-22T06:12:01;5.13;;;3.30;;
80961;SDS011;70424;55.154;14.722;2023-11-22T06:14:26;6.72;;;3.60;;
80961;SDS011;70424;55.154;14.722;2023-11-22T06:16:52;6.10;;;3.58;;
80961;SDS011;70424;55.154;14.722;2023-11-22T06:19:17;6.93;;;4.05;;
80961;SDS011;70424;55.154;14.722;2023-11-22T06:21:42;6.55;;;3.65;;
80961;SDS011;70424;55.154;14.722;2023-11-22T06:24:08;5.95;;;3.50;;
80961;SDS011;70424;55.154;14.722;2023-11-22T06:26:36;5.85;;;3.30;;
80961;SDS011;70424;55.154;14.722;2023-11-22T06:29:04;12.35;;;4.10;;
80961;SDS011;70424;55.154;14.722;2023-11-22T06:31:30;6.72;;;3.88;;
80961;SDS011;70424;55.154;14.722;2023-11-22T06:33:55;8.65;;;3.95;;
80961;SDS011;70424;55.154;14.722;2023-11-22T06:36:20;6.88;;;4.13;;
80961;SDS011;70424;55.154;14.722;2023-11-22T06:38:46;7.57;;;3.70;;
80961;SDS011;70424;55.154;14.722;2023-11-22T06:41:11;5.93;;;3.20;;
80961;SDS011;70424;55.154;14.722;2023-11-22T06:43:37;6.22;;;3.28;;
80961;SDS011;70424;55.154;14.722;2023-11-22T06:46:02;6.00;;;3.30;;
80961;SDS011;70424;55.154;14.722;2023-11-22T06:48:31;7.07;;;3.42;;
80961;SDS011;70424;55.154;14.722;2023-11-22T06:50:57;7.07;;;3.30;;
80961;SDS011;70424;55.154;14.722;2023-11-22T06:53:22;7.93;;;3.97;;
80961;SDS011;70424;55.154;14.722;2023-11-22T06:55:47;6.97;;;3.80;;
80961;SDS011;70424;55.154;14.722;2023-11-22T06:58:13;9.68;;;4.38;;
80961;SDS011;70424;55.154;14.722;2023-11-22T07:00:38;8.20;;;4.55;;
80961;SDS011;70424;55.154;14.722;2023-11-22T07:03:05;8.43;;;4.55;;
80961;SDS011;70424;55.154;14.722;2023-11-22T07:05:30;7.78;;;4.13;;
80961;SDS011;70424;55.154;14.722;2023-11-22T07:07:56;9.40;;;5.10;;
80961;SDS011;70424;55.154;14.722;2023-11-22T07:10:21;10.70;;;5.70;;
80961;SDS011;70424;55.154;14.722;2023-11-22T07:12:47;11.77;;;6.03;;
80961;SDS011;70424;55.154;14.722;2023-11-22T07:15:13;10.55;;;5.88;;
80961;SDS011;70424;55.154;14.722;2023-11-22T07:17:38;10.25;;;5.50;;
80961;SDS011;70424;55.154;14.722;2023-11-22T07:20:04;8.70;;;4.20;;
80961;SDS011;70424;55.154;14.722;2023-11-22T07:22:34;7.78;;;4.45;;
80961;SDS011;70424;55.154;14.722;2023-11-22T07:25:00;9.18;;;4.70;;
80961;SDS011;70424;55.154;14.722;2023-11-22T07:27:27;11.02;;;6.40;;
80961;SDS011;70424;55.154;14.722;2023-11-22T07:29:53;8.93;;;5.47;;
80961;SDS011;70424;55.154;14.722;2023-11-22T07:32:19;11.82;;;5.85;;
80961;SDS011;70424;55.154;14.722;2023-11-22T07:34:47;10.50;;;5.38;;
80961;SDS011;70424;55.154;14.722;2023-11-22T07:37:12;9.95;;;6.07;;
80961;SDS011;70424;55.154;14.722;2023-11-22T07:39:39;10.70;;;5.78;;
80961;SDS011;70424;55.154;14.722;2023-11-22T07:42:05;10.20;;;5.43;;
80961;SDS011;70424;55.154;14.722;2023-11-22T07:44:34;10.35;;;5.75;;
80961;SDS011;70424;55.154;14.722;2023-11-22T07:47:01;11.53;;;6.07;;
80961;SDS011;70424;55.154;14.722;2023-11-22T07:49:27;12.77;;;7.05;;
80961;SDS011;70424;55.154;14.722;2023-11-22T07:51:54;11.27;;;6.15;;
80961;SDS011;70424;55.154;14.722;2023-11-22T07:54:21;13.43;;;6.00;;
80961;SDS011;70424;55.154;14.722;2023-11-22T07:56:48;9.38;;;5.68;;
80961;SDS011;70424;55.154;14.722;2023-11-22T07:59:14;10.90;;;5.57;;
80961;SDS011;70424;55.154;14.722;2023-11-22T08:01:41;11.43;;;6.20;;
80961;SDS011;70424;55.154;14.722;2023-11-22T08:04:08;10.45;;;5.70;;
80961;SDS011;70424;55.154;14.722;2023-11-22T08:06:34;10.68;;;5.97;;
80961;SDS011;70424;55.154;14.722;2023-11-22T08:09:00;12.20;;;6.70;;
80961;SDS011;70424;55.154;14.722;2023-11-22T08:11:26;9.93;;;5.70;;
80961;SDS011;70424;55.154;14.722;2023-11-22T08:13:52;10.07;;;5.50;;
80961;SDS011;70424;55.154;14.722;2023-11-22T08:16:20;9.73;;;5.80;;
80961;SDS011;70424;55.154;14.722;2023-11-22T08:18:45;9.43;;;6.18;;
80961;SDS011;70424;55.154;14.722;2023-11-22T08:21:11;8.82;;;5.45;;
80961;SDS011;70424;55.154;14.722;2023-11-22T08:23:37;12.95;;;6.60;;
80961;SDS011;70424;55.154;14.722;2023-11-22T08:26:02;11.38;;;6.15;;
80961;SDS011;70424;55.154;14.722;2023-11-22T08:28:29;10.05;;;5.95;;
80961;SDS011;70424;55.154;14.722;2023-11-22T08:30:54;11.32;;;6.10;;
80961;SDS011;70424;55.154;14.722;2023-11-22T08:33:20;9.73;;;5.40;;
80961;SDS011;70424;55.154;14.722;2023-11-22T08:35:47;8.68;;;4.95;;
80961;SDS011;70424;55.154;14.722;2023-11-22T08:38:16;8.95;;;5.00;;
80961;SDS011;70424;55.154;14.722;2023-11-22T08:40:42;11.05;;;5.38;;
80961;SDS011;70424;55.154;14.722;2023-11-22T08:43:07;8.20;;;4.93;;
80961;SDS011;70424;55.154;14.722;2023-11-22T08:45:32;8.25;;;4.97;;
80961;SDS011;70424;55.154;14.722;2023-11-22T08:47:59;8.65;;;5.07;;
80961;SDS011;70424;55.154;14.722;2023-11-22T08:50:25;7.13;;;4.47;;
80961;SDS011;70424;55.154;14.722;2023-11-22T08:52:50;8.63;;;4.85;;
80961;SDS011;70424;55.154;14.722;2023-11-22T08:55:19;8.07;;;4.30;;
80961;SDS011;70424;55.154;14.722;2023-11-22T08:57:49;6.80;;;3.88;;
80961;SDS011;70424;55.154;14.722;2023-11-22T09:00:16;6.70;;;3.70;;
80961;SDS011;70424;55.154;14.722;2023-11-22T09:02:47;8.23;;;4.35;;
80961;SDS011;70424;55.154;14.722;2023-11-22T09:05:13;5.90;;;3.20;;
80961;SDS011;70424;55.154;14.722;2023-11-22T09:07:39;5.50;;;3.33;;
80961;SDS011;70424;55.154;14.722;2023-11-22T09:10:04;5.40;;;3.05;;
80961;SDS011;70424;55.154;14.722;2023-11-22T09:12:40;5.45;;;3.47;;
80961;SDS011;70424;55.154;14.722;2023-11-22T09:15:07;5.85;;;2.85;;
80961;SDS011;70424;55.154;14.722;2023-11-22T09:17:35;5.05;;;2.97;;
80961;SDS011;70424;55.154;14.722;2023-11-22T09:20:12;6.30;;;3.10;;
80961;SDS011;70424;55.154;14.722;2023-11-22T09:22:41;4.43;;;2.80;;
80961;SDS011;70424;55.154;14.722;2023-11-22T09:25:13;4.82;;;2.90;;
80961;SDS011;70424;55.154;14.722;2023-11-22T09:27:44;5.22;;;3.13;;
80961;SDS011;70424;55.154;14.722;2023-11-22T09:30:13;4.97;;;2.95;;
80961;SDS011;70424;55.154;14.722;2023-11-22T09:33:18;5.47;;;3.20;;
80961;SDS011;70424;55.154;14.722;2023-11-22T09:35:44;5.13;;;3.42;;
80961;SDS011;70424;55.154;14.722;2023-11-22T09:38:12;5.13;;;2.95;;
80961;SDS011;70424;55.154;14.722;2023-11-22T09:40:44;5.55;;;2.95;;
80961;SDS011;70424;55.154;14.722;2023-11-22T09:43:10;4.05;;;2.70;;
80961;SDS011;70424;55.154;14.722;2023-11-22T09:45:37;5.15;;;3.00;;
80961;SDS011;70424;55.154;14.722;2023-11-22T09:48:13;4.47;;;2.85;;
80961;SDS011;70424;55.154;14.722;2023-11-22T09:51:27;4.43;;;2.80;;
80961;SDS011;70424;55.154;14.722;2023-11-22T09:56:22;6.18;;;2.90;;
80961;SDS011;70424;55.154;14.722;2023-11-22T09:58:51;5.53;;;2.90;;
80961;SDS011;70424;55.154;14.722;2023-11-22T10:01:20;6.00;;;2.88;;
80961;SDS011;70424;55.154;14.722;2023-11-22T10:03:47;5.70;;;2.80;;
80961;SDS011;70424;55.154;14.722;2023-11-22T10:06:13;4.55;;;2.88;;
80961;SDS011;70424;55.154;14.722;2023-11-22T10:08:40;5.00;;;3.10;;
80961;SDS011;70424;55.154;14.722;2023-11-22T10:11:05;4.95;;;3.00;;
80961;SDS011;70424;55.154;14.722;2023-11-22T10:13:31;4.78;;;2.70;;
80961;SDS011;70424;55.154;14.722;2023-11-22T10:15:59;4.75;;;2.97;;
80961;SDS011;70424;55.154;14.722;2023-11-22T10:18:34;4.70;;;2.38;;
80961;SDS011;70424;55.154;14.722;2023-11-22T10:20:59;5.10;;;2.70;;
80961;SDS011;70424;55.154;14.722;2023-11-22T10:23:28;4.30;;;2.30;;
80961;SDS011;70424;55.154;14.722;2023-11-22T10:25:54;5.30;;;2.60;;
80961;SDS011;70424;55.154;14.722;2023-11-22T10:28:21;4.10;;;2.40;;
80961;SDS011;70424;55.154;14.722;2023-11-22T10:30:49;3.95;;;2.40;;
80961;SDS011;70424;55.154;14.722;2023-11-22T10:33:16;3.00;;;1.90;;
80961;SDS011;70424;55.154;14.722;2023-11-22T10:35:47;3.28;;;2.15;;
80961;SDS011;70424;55.154;14.722;2023-11-22T10:38:22;3.50;;;2.10;;
80961;SDS011;70424;55.154;14.722;2023-11-22T10:40:47;4.28;;;2.13;;
80961;SDS011;70424;55.154;14.722;2023-11-22T10:43:16;3.42;;;2.20;;
80961;SDS011;70424;55.154;14.722;2023-11-22T10:45:43;4.40;;;1.83;;
80961;SDS011;70424;55.154;14.722;2023-11-22T10:48:13;4.13;;;2.28;;
80961;SDS011;70424;55.154;14.722;2023-11-22T10:50:43;3.90;;;2.38;;
80961;SDS011;70424;55.154;14.722;2023-11-22T10:53:10;2.63;;;1.80;;
80961;SDS011;70424;55.154;14.722;2023-11-22T10:55:38;3.72;;;2.00;;
80961;SDS011;70424;55.154;14.722;2023-11-22T10:58:09;2.58;;;1.70;;
80961;SDS011;70424;55.154;14.722;2023-11-22T11:00:36;3.85;;;2.28;;
80961;SDS011;70424;55.154;14.722;2023-11-22T11:03:18;3.50;;;2.05;;
80961;SDS011;70424;55.154;14.722;2023-11-22T11:05:57;3.42;;;2.20;;
80961;SDS011;70424;55.154;14.722;2023-11-22T11:08:26;3.22;;;1.98;;
80961;SDS011;70424;55.154;14.722;2023-11-22T11:10:53;3.88;;;2.05;;
80961;SDS011;70424;55.154;14.722;2023-11-22T11:13:23;3.40;;;1.98;;
80961;SDS011;70424;55.154;14.722;2023-11-22T11:15:49;3.92;;;2.13;;
80961;SDS011;70424;55.154;14.722;2023-11-22T11:18:15;3.63;;;1.90;;
80961;SDS011;70424;55.154;14.722;2023-11-22T11:20:48;3.47;;;2.05;;
80961;SDS011;70424;55.154;14.722;2023-11-22T11:23:22;3.47;;;2.30;;
80961;SDS011;70424;55.154;14.722;2023-11-22T11:25:54;3.90;;;2.22;;
80961;SDS011;70424;55.154;14.722;2023-11-22T11:28:21;3.90;;;2.20;;
80961;SDS011;70424;55.154;14.722;2023-11-22T11:30:50;3.33;;;1.92;;
80961;SDS011;70424;55.154;14.722;2023-11-22T11:33:19;3.45;;;2.13;;
80961;SDS011;70424;55.154;14.722;2023-11-22T11:35:52;3.20;;;2.00;;
80961;SDS011;70424;55.154;14.722;2023-11-22T11:38:21;3.70;;;1.90;;
80961;SDS011;70424;55.154;14.722;2023-11-22T11:40:51;4.03;;;2.00;;
80961;SDS011;70424;55.154;14.722;2023-11-22T11:46:06;3.33;;;1.77;;
80961;SDS011;70424;55.154;14.722;2023-11-22T11:48:33;3.13;;;2.20;;
80961;SDS011;70424;55.154;14.722;2023-11-22T11:51:00;2.65;;;1.90;;
80961;SDS011;70424;55.154;14.722;2023-11-22T11:53:26;2.65;;;1.65;;
80961;SDS011;70424;55.154;14.722;2023-11-22T11:55:51;3.15;;;2.00;;
80961;SDS011;70424;55.154;14.722;2023-11-22T11:58:18;3.90;;;2.13;;
80961;SDS011;70424;55.154;14.722;2023-11-22T12:00:44;3.50;;;1.92;;
80961;SDS011;70424;55.154;14.722;2023-11-22T12:03:09;4.55;;;2.28;;
80961;SDS011;70424;55.154;14.722;2023-11-22T12:05:38;3.05;;;1.70;;
80961;SDS011;70424;55.154;14.722;2023-11-22T12:08:04;2.70;;;1.77;;
80961;SDS011;70424;55.154;14.722;2023-11-22T12:10:30;4.65;;;1.88;;
80961;SDS011;70424;55.154;14.722;2023-11-22T12:12:56;3.67;;;1.65;;
80961;SDS011;70424;55.154;14.722;2023-11-22T12:15:21;3.67;;;1.80;;
80961;SDS011;70424;55.154;14.722;2023-11-22T12:17:50;3.30;;;1.60;;
80961;SDS011;70424;55.154;14.722;2023-11-22T12:20:17;4.28;;;1.95;;
80961;SDS011;70424;55.154;14.722;2023-11-22T12:22:46;3.72;;;1.92;;
80961;SDS011;70424;55.154;14.722;2023-11-22T12:25:13;1.60;;;1.30;;
80961;SDS011;70424;55.154;14.722;2023-11-22T12:27:39;2.90;;;1.40;;
80961;SDS011;70424;55.154;14.722;2023-11-22T12:30:06;2.53;;;1.48;;
80961;SDS011;70424;55.154;14.722;2023-11-22T12:32:32;2.58;;;1.58;;
80961;SDS011;70424;55.154;14.722;2023-11-22T12:34:58;3.67;;;1.73;;
80961;SDS011;70424;55.154;14.722;2023-11-22T12:37:23;4.22;;;1.90;;
80961;SDS011;70424;55.154;14.722;2023-11-22T12:39:49;3.10;;;1.38;;
80961;SDS011;70424;55.154;14.722;2023-11-22T12:42:16;2.05;;;1.30;;
80961;SDS011;70424;55.154;14.722;2023-11-22T12:44:49;2.28;;;1.30;;
80961;SDS011;70424;55.154;14.722;2023-11-22T12:47:30;2.08;;;1.60;;
80961;SDS011;70424;55.154;14.722;2023-11-22T12:49:56;4.03;;;1.63;;
80961;SDS011;70424;55.154;14.722;2023-11-22T12:52:25;1.73;;;1.48;;
80961;SDS011;70424;55.154;14.722;2023-11-22T12:54:51;3.00;;;1.55;;
80961;SDS011;70424;55.154;14.722;2023-11-22T12:57:16;5.72;;;1.70;;
80961;SDS011;70424;55.154;14.722;2023-11-22T12:59:42;3.97;;;1.83;;
80961;SDS011;70424;55.154;14.722;2023-11-22T13:02:08;2.58;;;1.33;;
80961;SDS011;70424;55.154;14.722;2023-11-22T13:04:34;3.95;;;1.63;;
80961;SDS011;70424;55.154;14.722;2023-11-22T13:06:59;2.83;;;1.40;;
80961;SDS011;70424;55.154;14.722;2023-11-22T13:09:27;3.17;;;1.30;;
80961;SDS011;70424;55.154;14.722;2023-11-22T13:11:54;3.53;;;1.60;;
80961;SDS011;70424;55.154;14.722;2023-11-22T13:14:19;2.78;;;1.33;;
80961;SDS011;70424;55.154;14.722;2023-11-22T13:16:45;2.95;;;1.40;;
80961;SDS011;70424;55.154;14.722;2023-11-22T13:19:10;2.95;;;1.75;;
80961;SDS011;70424;55.154;14.722;2023-11-22T13:21:36;2.28;;;1.33;;
80961;SDS011;70424;55.154;14.722;2023-11-22T13:24:01;3.92;;;1.27;;
80961;SDS011;70424;55.154;14.722;2023-11-22T13:26:27;2.15;;;1.42;;
80961;SDS011;70424;55.154;14.722;2023-11-22T13:28:52;2.25;;;1.40;;
80961;SDS011;70424;55.154;14.722;2023-11-22T13:31:19;3.00;;;1.80;;
80961;SDS011;70424;55.154;14.722;2023-11-22T13:33:46;4.30;;;1.80;;
80961;SDS011;70424;55.154;14.722;2023-11-22T13:36:12;2.20;;;1.60;;
80961;SDS011;70424;55.154;14.722;2023-11-22T13:38:39;3.42;;;1.17;;
80961;SDS011;70424;55.154;14.722;2023-11-22T13:41:04;2.70;;;1.27;;
80961;SDS011;70424;55.154;14.722;2023-11-22T13:43:30;3.25;;;1.20;;
80961;SDS011;70424;55.154;14.722;2023-11-22T13:45:56;2.80;;;1.40;;
80961;SDS011;70424;55.154;14.722;2023-11-22T13:48:21;2.63;;;1.25;;
80961;SDS011;70424;55.154;14.722;2023-11-22T13:50:48;0.93;;;0.90;;
80961;SDS011;70424;55.154;14.722;2023-11-22T13:53:14;1.92;;;1.17;;
80961;SDS011;70424;55.154;14.722;2023-11-22T13:55:40;1.40;;;0.82;;
80961;SDS011;70424;55.154;14.722;2023-11-22T13:58:05;1.88;;;1.20;;
80961;SDS011;70424;55.154;14.722;2023-11-22T14:00:30;1.83;;;1.20;;
80961;SDS011;70424;55.154;14.722;2023-11-22T14:03:00;2.22;;;1.13;;
80961;SDS011;70424;55.154;14.722;2023-11-22T14:05:31;2.97;;;1.30;;
80961;SDS011;70424;55.154;14.722;2023-11-22T14:07:58;2.70;;;1.48;;
80961;SDS011;70424;55.154;14.722;2023-11-22T14:10:24;2.47;;;1.05;;
80961;SDS011;70424;55.154;14.722;2023-11-22T14:12:49;3.42;;;1.35;;
80961;SDS011;70424;55.154;14.722;2023-11-22T14:15:16;2.05;;;1.10;;
80961;SDS011;70424;55.154;14.722;2023-11-22T14:17:41;4.25;;;1.30;;
80961;SDS011;70424;55.154;14.722;2023-11-22T14:20:07;3.75;;;1.60;;
80961;SDS011;70424;55.154;14.722;2023-11-22T14:22:37;1.10;;;0.95;;
80961;SDS011;70424;55.154;14.722;2023-11-22T14:25:04;2.20;;;1.20;;
80961;SDS011;70424;55.154;14.722;2023-11-22T14:27:32;3.03;;;1.25;;
80961;SDS011;70424;55.154;14.722;2023-11-22T14:29:58;2.35;;;1.02;;
80961;SDS011;70424;55.154;14.722;2023-11-22T14:32:24;3.85;;;1.17;;
80961;SDS011;70424;55.154;14.722;2023-11-22T14:34:49;0.70;;;0.70;;
80961;SDS011;70424;55.154;14.722;2023-11-22T14:37:15;2.25;;;1.00;;
80961;SDS011;70424;55.154;14.722;2023-11-22T14:39:43;2.60;;;1.20;;